Time;durP1;ratioP1;P1;durP2;ratioP2;P2;SDS_P1;SDS_P2;PMS_P1;PMS_P2;Temp;Humidity;BMP_temperature;BMP_pressure;BME280_temperature;BME280_humidity;BME280_pressure;Samples;Min_cycle;Max_cycle;Signal;HPM_P1;HPM_P2
2023/11/24 00:01:58;;;;;;;7.18;5.00;;;5.10;99.90;;;;;;5052570;28;20108;-67
2023/11/24 00:04:30;;;;;;;6.90;4.50;;;5.20;99.90;;;;;;5053410;28;20521;-68
2023/11/24 00:07:03;;;;;;;7.60;4.90;;;5.20;99.90;;;;;;5057616;28;20509;-68
2023/11/24 00:09:35;;;;;;;6.30;3.88;;;5.10;99.90;;;;;;5052082;28;20589;-68
2023/11/24 00:12:02;;;;;;;8.40;5.43;;;5.20;99.90;;;;;;5051752;28;20045;-67
2023/11/24 00:14:29;;;;;;;7.53;4.65;;;5.20;99.90;;;;;;5055165;28;20060;-66
2023/11/24 00:17:01;;;;;;;8.50;4.65;;;5.20;99.90;;;;;;5049255;28;20127;-67
2023/11/24 00:19:33;;;;;;;8.93;5.72;;;5.20;99.90;;;;;;5069020;28;20402;-67
2023/11/24 00:22:05;;;;;;;8.40;4.72;;;5.20;99.90;;;;;;5060804;28;20036;-67
2023/11/24 00:24:37;;;;;;;6.07;4.70;;;5.20;99.90;;;;;;5055457;28;20060;-67
2023/11/24 00:27:09;;;;;;;6.20;4.70;;;5.10;99.90;;;;;;5056432;28;20474;-67
2023/11/24 00:29:41;;;;;;;7.78;4.88;;;5.10;99.90;;;;;;5060794;28;20052;-67
2023/11/24 00:32:14;;;;;;;7.85;5.57;;;5.10;99.90;;;;;;5052338;28;20627;-68
2023/11/24 00:34:45;;;;;;;6.03;4.50;;;5.10;99.90;;;;;;5049169;28;20047;-67
2023/11/24 00:37:12;;;;;;;7.57;5.55;;;5.00;99.90;;;;;;5049436;28;20106;-67
2023/11/24 00:39:39;;;;;;;8.70;5.40;;;5.00;99.90;;;;;;5034566;28;20034;-67
2023/11/24 00:42:11;;;;;;;6.82;4.97;;;5.00;99.90;;;;;;5051424;28;20064;-67
2023/11/24 00:44:43;;;;;;;7.70;4.72;;;5.00;99.90;;;;;;5034410;28;20048;-67
2023/11/24 00:47:17;;;;;;;7.05;4.75;;;5.00;99.90;;;;;;5059995;28;20040;-67
2023/11/24 00:49:48;;;;;;;6.50;3.80;;;5.00;99.90;;;;;;5067328;28;20037;-67
2023/11/24 00:52:20;;;;;;;7.13;4.93;;;5.10;99.90;;;;;;5060540;28;20041;-67
2023/11/24 00:54:53;;;;;;;7.40;4.40;;;5.10;99.90;;;;;;5055465;28;20048;-67
2023/11/24 00:57:25;;;;;;;6.72;3.72;;;5.10;99.90;;;;;;5056903;28;20036;-67
2023/11/24 00:59:57;;;;;;;8.90;4.78;;;5.10;99.90;;;;;;5052838;28;20037;-67
2023/11/24 01:02:28;;;;;;;6.07;4.45;;;5.10;99.90;;;;;;5054590;28;20142;-64
2023/11/24 01:04:55;;;;;;;5.90;4.10;;;5.20;99.90;;;;;;5051484;28;20469;-67
2023/11/24 01:07:24;;;;;;;8.68;4.57;;;5.20;99.90;;;;;;5018399;28;20132;-67
2023/11/24 01:09:56;;;;;;;6.03;4.30;;;5.20;99.90;;;;;;5049555;28;20060;-67
2023/11/24 01:12:28;;;;;;;7.38;4.10;;;5.20;99.90;;;;;;5057447;28;20055;-67
2023/11/24 01:15:00;;;;;;;6.07;4.40;;;5.20;99.90;;;;;;5059458;28;20037;-67
2023/11/24 01:17:32;;;;;;;5.85;4.30;;;5.20;99.90;;;;;;5052767;28;20041;-67
2023/11/24 01:20:07;;;;;;;4.97;4.28;;;5.20;99.90;;;;;;5043360;28;20076;-68
2023/11/24 01:22:40;;;;;;;5.60;4.18;;;5.20;99.90;;;;;;5058832;28;20044;-67
2023/11/24 01:25:07;;;;;;;5.65;3.97;;;5.20;99.90;;;;;;5032584;28;20044;-67
2023/11/24 01:27:40;;;;;;;5.45;3.88;;;5.20;99.90;;;;;;5056087;28;20051;-67
2023/11/24 01:30:10;;;;;;;5.18;3.67;;;5.20;99.90;;;;;;5055384;28;20036;-68
2023/11/24 01:32:42;;;;;;;5.13;3.85;;;5.20;99.90;;;;;;5049407;28;20045;-67
2023/11/24 01:35:14;;;;;;;5.50;3.58;;;5.20;99.90;;;;;;5048780;28;20041;-67
2023/11/24 01:37:46;;;;;;;5.97;4.28;;;5.30;99.90;;;;;;5058234;28;20500;-67
2023/11/24 01:40:18;;;;;;;7.28;4.15;;;5.30;99.90;;;;;;5050487;28;20037;-67
2023/11/24 01:42:50;;;;;;;8.27;4.25;;;5.30;99.90;;;;;;5034822;28;20041;-67
2023/11/24 01:45:16;;;;;;;6.13;4.13;;;5.30;99.90;;;;;;5049185;28;20108;-67
2023/11/24 01:47:45;;;;;;;5.68;4.30;;;5.30;99.90;;;;;;5054688;28;20044;-67
2023/11/24 01:50:13;;;;;;;5.85;3.65;;;5.40;99.90;;;;;;5061789;28;20036;-67
2023/11/24 01:52:42;;;;;;;5.95;4.18;;;5.40;99.90;;;;;;5054948;28;20052;-67
2023/11/24 01:55:16;;;;;;;5.07;3.72;;;5.40;99.90;;;;;;5059777;28;20037;-68
2023/11/24 01:57:44;;;;;;;5.22;4.00;;;5.40;99.90;;;;;;5057483;28;20037;-67
2023/11/24 02:00:16;;;;;;;5.18;3.85;;;5.40;99.90;;;;;;5056966;28;20033;-67
2023/11/24 02:02:49;;;;;;;5.05;3.50;;;5.40;99.90;;;;;;5054763;28;20517;-67
2023/11/24 02:05:21;;;;;;;5.18;3.95;;;5.50;99.90;;;;;;5053327;28;20045;-68
2023/11/24 02:07:54;;;;;;;7.73;4.03;;;5.50;99.90;;;;;;5048064;28;20053;-67
2023/11/24 02:10:27;;;;;;;5.75;3.85;;;5.50;99.90;;;;;;5080327;28;20505;-67
2023/11/24 02:12:54;;;;;;;4.80;3.30;;;5.50;99.90;;;;;;5051053;28;20055;-67
2023/11/24 02:15:26;;;;;;;6.35;4.00;;;5.60;99.90;;;;;;5052594;28;20045;-67
2023/11/24 02:17:58;;;;;;;6.00;4.20;;;5.60;99.90;;;;;;5051560;28;20136;-67
2023/11/24 02:20:26;;;;;;;5.85;3.80;;;5.60;99.90;;;;;;5054994;28;20051;-67
2023/11/24 02:22:58;;;;;;;4.43;3.35;;;5.60;99.90;;;;;;5056996;28;20040;-68
2023/11/24 02:25:30;;;;;;;6.15;4.25;;;5.60;99.90;;;;;;5059301;28;20048;-67
2023/11/24 02:28:02;;;;;;;5.10;4.18;;;5.70;99.90;;;;;;5046196;28;20036;-67
2023/11/24 02:30:34;;;;;;;6.53;4.40;;;5.70;99.90;;;;;;5061315;28;20068;-67
2023/11/24 02:33:07;;;;;;;6.05;3.70;;;5.70;99.90;;;;;;5052856;28;20057;-68
2023/11/24 02:35:42;;;;;;;5.45;4.70;;;5.60;99.90;;;;;;5038100;28;20045;-67
2023/11/24 02:38:14;;;;;;;6.78;4.00;;;5.60;99.90;;;;;;5035598;28;20044;-68
2023/11/24 02:40:47;;;;;;;6.78;4.60;;;5.60;99.90;;;;;;5054200;28;20045;-68
2023/11/24 02:43:19;;;;;;;6.80;4.75;;;5.60;99.90;;;;;;5050604;28;20041;-67
2023/11/24 02:45:46;;;;;;;7.18;4.97;;;5.60;99.90;;;;;;5048288;28;20051;-67
2023/11/24 02:48:18;;;;;;;5.97;4.25;;;5.50;99.90;;;;;;5043939;28;20516;-67
2023/11/24 02:50:45;;;;;;;7.97;5.25;;;5.50;99.90;;;;;;5053884;28;20052;-67
2023/11/24 02:53:17;;;;;;;7.15;4.60;;;5.50;99.90;;;;;;5042586;28;20048;-68
2023/11/24 02:55:49;;;;;;;6.57;4.20;;;5.50;99.90;;;;;;5056474;28;20051;-68
2023/11/24 02:58:20;;;;;;;5.90;4.88;;;5.50;99.90;;;;;;5054882;28;20044;-68
2023/11/24 03:00:53;;;;;;;6.03;4.55;;;5.50;99.90;;;;;;5054438;28;20071;-68
2023/11/24 03:03:27;;;;;;;7.65;5.30;;;5.50;99.90;;;;;;5053756;28;20077;-66
2023/11/24 03:05:55;;;;;;;6.10;4.45;;;5.50;99.90;;;;;;5046843;28;20037;-67
2023/11/24 03:08:29;;;;;;;6.72;4.85;;;5.50;99.90;;;;;;5035364;28;20044;-67
2023/11/24 03:11:05;;;;;;;7.80;5.22;;;5.50;99.90;;;;;;5044953;28;20045;-67
2023/11/24 03:13:37;;;;;;;6.55;4.80;;;5.50;99.90;;;;;;5056603;28;20098;-67
2023/11/24 03:16:10;;;;;;;6.85;4.28;;;5.50;99.90;;;;;;5043802;28;20045;-67
2023/11/24 03:18:43;;;;;;;7.45;5.25;;;5.60;99.90;;;;;;5046891;28;20420;-67
2023/11/24 03:21:15;;;;;;;6.40;4.20;;;5.50;99.90;;;;;;5037938;28;20124;-67
2023/11/24 03:23:42;;;;;;;7.00;4.68;;;5.50;99.90;;;;;;5061066;28;20049;-67
2023/11/24 03:26:14;;;;;;;6.30;4.70;;;5.50;99.90;;;;;;5039419;28;20055;-67
2023/11/24 03:28:47;;;;;;;6.68;4.00;;;5.60;99.90;;;;;;5057056;28;20041;-67
2023/11/24 03:31:14;;;;;;;6.82;4.32;;;5.60;99.90;;;;;;5054188;28;20065;-67
2023/11/24 03:33:46;;;;;;;5.35;4.13;;;5.60;99.90;;;;;;5052260;28;20037;-68
2023/11/24 03:36:18;;;;;;;6.05;4.32;;;5.60;99.90;;;;;;5056099;28;20390;-67
2023/11/24 03:38:50;;;;;;;5.65;4.20;;;5.70;99.90;;;;;;5044506;28;20053;-67
2023/11/24 03:41:22;;;;;;;7.75;4.43;;;5.70;99.90;;;;;;5046852;28;20037;-68
2023/11/24 03:43:54;;;;;;;5.10;4.00;;;5.70;99.90;;;;;;5051793;28;20041;-67
2023/11/24 03:46:26;;;;;;;6.88;4.10;;;5.70;99.90;;;;;;5033633;28;20069;-67
2023/11/24 03:48:53;;;;;;;6.88;4.47;;;5.70;99.90;;;;;;5059911;28;20037;-67
2023/11/24 03:51:24;;;;;;;4.80;3.53;;;5.70;99.90;;;;;;5023295;28;20509;-67
2023/11/24 03:53:57;;;;;;;4.97;3.70;;;5.80;99.90;;;;;;5055839;28;20056;-66
2023/11/24 03:56:29;;;;;;;4.15;3.45;;;5.80;99.90;;;;;;5044479;28;20044;-67
2023/11/24 03:58:55;;;;;;;6.72;3.58;;;5.80;99.90;;;;;;5058747;28;20064;-64
2023/11/24 04:01:27;;;;;;;5.90;3.83;;;5.90;99.90;;;;;;5059301;28;20048;-67
2023/11/24 04:04:00;;;;;;;5.78;3.83;;;5.90;99.90;;;;;;5061419;28;20051;-67
2023/11/24 04:06:32;;;;;;;4.55;3.70;;;5.90;99.90;;;;;;5054169;28;20036;-67
2023/11/24 04:09:04;;;;;;;5.00;3.90;;;5.90;99.90;;;;;;5052571;28;20111;-67
2023/11/24 04:11:37;;;;;;;5.18;3.80;;;5.90;99.90;;;;;;5057513;28;20041;-68
2023/11/24 04:14:09;;;;;;;4.47;3.65;;;5.90;99.90;;;;;;5028320;28;20059;-68
2023/11/24 04:16:36;;;;;;;5.55;3.60;;;5.90;99.90;;;;;;5044016;28;20477;-68
2023/11/24 04:19:09;;;;;;;5.82;3.67;;;5.90;99.90;;;;;;5031910;28;20045;-67
2023/11/24 04:21:39;;;;;;;4.30;3.33;;;5.90;99.90;;;;;;5059032;28;20044;-67
2023/11/24 04:24:07;;;;;;;5.22;4.00;;;5.80;99.90;;;;;;5059905;28;20479;-68
2023/11/24 04:26:39;;;;;;;4.85;2.75;;;5.80;99.90;;;;;;5057337;28;20049;-67
2023/11/24 04:29:11;;;;;;;4.68;3.30;;;5.80;99.90;;;;;;5039852;28;20458;-67
2023/11/24 04:31:37;;;;;;;5.35;3.22;;;5.80;99.90;;;;;;5060772;28;20140;-67
2023/11/24 04:34:09;;;;;;;4.40;3.53;;;5.70;99.90;;;;;;5056262;28;20463;-67
2023/11/24 04:36:41;;;;;;;4.18;3.30;;;5.70;99.90;;;;;;5065257;28;20044;-67
2023/11/24 04:39:08;;;;;;;5.55;3.53;;;5.70;99.90;;;;;;5051026;28;20067;-68
2023/11/24 04:41:40;;;;;;;5.45;3.45;;;5.60;99.90;;;;;;5055161;28;20132;-68
2023/11/24 04:44:13;;;;;;;5.60;3.70;;;5.60;99.90;;;;;;5054342;28;20064;-67
2023/11/24 04:46:45;;;;;;;5.88;3.47;;;5.70;99.90;;;;;;5047702;28;20592;-67
2023/11/24 04:49:17;;;;;;;5.10;3.20;;;5.70;99.90;;;;;;5045441;28;20041;-67
2023/11/24 04:51:49;;;;;;;4.90;3.63;;;5.70;99.90;;;;;;5055021;28;20044;-67
2023/11/24 04:54:16;;;;;;;6.60;3.00;;;5.70;99.90;;;;;;5057489;28;20041;-68
2023/11/24 04:56:48;;;;;;;4.43;3.10;;;5.70;99.90;;;;;;5062565;28;20045;-68
2023/11/24 04:59:15;;;;;;;3.97;3.10;;;5.70;99.90;;;;;;5040459;28;20079;-68
2023/11/24 05:01:47;;;;;;;5.50;3.80;;;5.70;99.90;;;;;;5053921;28;20516;-67
2023/11/24 05:04:14;;;;;;;5.03;3.10;;;5.60;99.90;;;;;;5052635;28;20059;-67
2023/11/24 05:06:46;;;;;;;6.45;3.60;;;5.60;99.90;;;;;;5054779;28;20049;-67
2023/11/24 05:09:18;;;;;;;4.40;3.65;;;5.60;99.90;;;;;;5060478;28;20444;-68
2023/11/24 05:11:50;;;;;;;5.10;3.80;;;5.50;99.90;;;;;;5056196;28;20513;-68
2023/11/24 05:14:22;;;;;;;6.65;3.95;;;5.60;99.90;;;;;;5048767;28;20046;-67
2023/11/24 05:16:53;;;;;;;4.80;3.55;;;5.60;99.90;;;;;;5047004;28;20436;-68
2023/11/24 05:19:25;;;;;;;5.82;3.50;;;5.70;99.90;;;;;;5064184;28;20068;-68
2023/11/24 05:21:57;;;;;;;6.13;3.88;;;5.70;99.90;;;;;;5042998;28;20049;-68
2023/11/24 05:24:29;;;;;;;5.75;4.57;;;5.70;99.90;;;;;;5052611;28;20040;-67
2023/11/24 05:27:01;;;;;;;5.00;4.03;;;5.60;99.90;;;;;;5055501;28;20051;-68
2023/11/24 05:29:34;;;;;;;4.20;3.63;;;5.60;99.90;;;;;;5053719;28;20106;-67
2023/11/24 05:32:06;;;;;;;4.87;3.90;;;5.70;99.90;;;;;;5049888;28;20076;-67
2023/11/24 05:34:38;;;;;;;5.38;3.83;;;5.80;99.90;;;;;;5052457;28;20045;-67
2023/11/24 05:37:09;;;;;;;5.80;4.03;;;5.80;99.90;;;;;;5054551;28;20050;-66
2023/11/24 05:39:41;;;;;;;4.63;3.65;;;5.80;99.90;;;;;;5054944;28;20036;-66
2023/11/24 05:42:15;;;;;;;4.72;3.65;;;5.80;99.90;;;;;;5052199;28;20045;-66
2023/11/24 05:44:47;;;;;;;4.25;3.17;;;5.90;99.90;;;;;;5046615;28;20029;-67
2023/11/24 05:47:20;;;;;;;5.05;3.35;;;5.90;99.90;;;;;;5047519;28;20045;-65
2023/11/24 05:49:52;;;;;;;5.43;3.80;;;5.90;99.90;;;;;;5045546;28;20049;-66
2023/11/24 05:52:25;;;;;;;5.15;3.83;;;6.00;99.90;;;;;;5057697;28;20029;-67
2023/11/24 05:54:58;;;;;;;6.45;3.63;;;6.00;99.90;;;;;;5055317;28;20179;-67
2023/11/24 05:57:33;;;;;;;;;;;5.90;99.90;;;;;;5043147;28;20034;-67
2023/11/24 06:00:08;;;;;;;6.03;3.60;;;6.00;99.90;;;;;;5053785;28;19920;-66
2023/11/24 06:02:40;;;;;;;5.57;4.15;;;6.00;99.90;;;;;;5054627;28;20029;-67
2023/11/24 06:05:12;;;;;;;7.20;3.22;;;6.00;99.90;;;;;;5050066;28;20428;-67
2023/11/24 06:07:44;;;;;;;5.90;3.83;;;6.00;99.90;;;;;;5052068;28;20421;-66
2023/11/24 06:10:16;;;;;;;4.20;3.05;;;6.10;99.90;;;;;;5048717;28;20045;-67
2023/11/24 06:12:48;;;;;;;5.38;3.80;;;6.10;99.90;;;;;;5048629;28;20044;-66
2023/11/24 06:15:20;;;;;;;5.78;4.03;;;6.10;99.90;;;;;;5036327;28;20044;-66
2023/11/24 06:17:52;;;;;;;6.38;5.07;;;6.10;99.90;;;;;;5046304;28;20083;-66
2023/11/24 06:20:23;;;;;;;5.35;3.80;;;6.20;99.90;;;;;;5034977;28;20072;-70
2023/11/24 06:22:50;;;;;;;4.53;3.40;;;6.20;99.90;;;;;;5042784;28;20033;-67
2023/11/24 06:25:17;;;;;;;5.90;3.70;;;6.20;99.90;;;;;;5042481;28;20425;-67
2023/11/24 06:27:50;;;;;;;5.63;3.65;;;6.20;99.90;;;;;;5064565;28;20052;-67
2023/11/24 06:30:22;;;;;;;5.95;3.78;;;6.20;99.90;;;;;;5046386;28;20073;-67
2023/11/24 06:32:54;;;;;;;7.47;4.00;;;6.20;99.90;;;;;;5034085;28;20424;-67
2023/11/24 06:35:25;;;;;;;6.38;3.90;;;6.20;99.90;;;;;;5048689;28;20052;-67
2023/11/24 06:37:57;;;;;;;5.32;3.88;;;6.20;99.90;;;;;;5050200;28;20494;-68
2023/11/24 06:40:29;;;;;;;9.20;4.07;;;6.20;99.90;;;;;;5048136;28;20033;-68
2023/11/24 06:43:01;;;;;;;6.45;4.32;;;6.20;99.90;;;;;;5046096;28;20055;-68
2023/11/24 06:45:28;;;;;;;5.60;4.13;;;6.20;99.90;;;;;;5046621;28;20051;-67
2023/11/24 06:47:56;;;;;;;6.28;3.97;;;6.20;99.90;;;;;;5028203;28;20146;-67
2023/11/24 06:50:28;;;;;;;6.68;4.10;;;6.10;99.90;;;;;;5036399;28;20076;-67
2023/11/24 06:53:01;;;;;;;7.53;4.28;;;6.10;99.90;;;;;;5042186;28;20057;-68
2023/11/24 06:55:33;;;;;;;8.70;4.72;;;6.10;99.90;;;;;;5045106;28;20041;-67
2023/11/24 06:58:00;;;;;;;5.43;4.07;;;6.10;99.90;;;;;;5056439;28;20585;-67
2023/11/24 07:00:33;;;;;;;6.25;3.80;;;6.10;99.90;;;;;;5047338;28;20028;-67
2023/11/24 07:03:00;;;;;;;8.65;4.35;;;6.10;99.90;;;;;;5057111;28;20496;-66
2023/11/24 07:05:27;;;;;;;6.40;4.22;;;6.10;99.90;;;;;;5049832;28;20068;-67
2023/11/24 07:07:58;;;;;;;7.53;4.32;;;6.10;99.90;;;;;;5048388;28;20040;-67
2023/11/24 07:10:30;;;;;;;4.97;3.42;;;6.20;99.90;;;;;;5036106;28;20049;-67
2023/11/24 07:13:02;;;;;;;3.85;2.40;;;6.20;99.90;;;;;;5045705;28;20037;-67
2023/11/24 07:15:29;;;;;;;1.85;1.27;;;6.10;99.90;;;;;;5048125;28;20065;-67
2023/11/24 07:18:01;;;;;;;2.10;1.38;;;6.00;99.90;;;;;;5047375;28;20487;-66
2023/11/24 07:20:33;;;;;;;2.05;1.10;;;5.90;99.90;;;;;;5040702;28;20040;-65
2023/11/24 07:23:05;;;;;;;1.40;0.70;;;5.80;99.90;;;;;;5043767;28;20401;-66
2023/11/24 07:25:37;;;;;;;1.40;0.90;;;5.70;99.90;;;;;;5050216;28;20051;-66
2023/11/24 07:28:07;;;;;;;2.03;1.50;;;5.50;99.90;;;;;;5058967;28;20037;-67
2023/11/24 07:30:39;;;;;;;1.80;0.85;;;5.50;99.90;;;;;;5051283;28;20045;-67
2023/11/24 07:33:11;;;;;;;3.30;0.88;;;5.50;99.90;;;;;;5055286;28;20064;-67
2023/11/24 07:35:43;;;;;;;1.75;1.02;;;5.40;99.90;;;;;;5053931;28;20588;-67
2023/11/24 07:38:16;;;;;;;4.25;1.38;;;5.40;99.90;;;;;;5055610;28;20044;-67
2023/11/24 07:40:48;;;;;;;2.95;1.70;;;5.40;99.90;;;;;;5058522;28;20033;-66
2023/11/24 07:43:20;;;;;;;5.38;2.60;;;5.30;99.90;;;;;;5043814;28;20098;-67
2023/11/24 07:45:52;;;;;;;6.10;1.65;;;5.30;99.90;;;;;;5047541;28;20056;-67
2023/11/24 07:48:24;;;;;;;3.22;1.77;;;5.20;99.90;;;;;;5030967;28;20110;-67
2023/11/24 07:50:56;;;;;;;4.45;1.52;;;5.20;99.90;;;;;;5062458;28;20043;-67
2023/11/24 07:53:28;;;;;;;1.60;0.82;;;5.20;99.90;;;;;;5050108;28;20044;-68
2023/11/24 07:56:00;;;;;;;1.77;0.85;;;5.20;99.90;;;;;;5048848;28;20045;-68
2023/11/24 07:58:32;;;;;;;1.65;0.70;;;5.20;99.90;;;;;;5048330;28;20049;-67
2023/11/24 08:01:04;;;;;;;7.32;0.95;;;5.10;99.90;;;;;;5046154;28;20052;-68
2023/11/24 08:03:36;;;;;;;1.88;0.70;;;5.10;99.90;;;;;;5063315;28;20124;-67
2023/11/24 08:06:07;;;;;;;2.67;1.00;;;5.10;99.90;;;;;;5059506;28;20047;-67
2023/11/24 08:08:40;;;;;;;2.67;1.02;;;5.10;99.90;;;;;;5046621;28;20044;-67
2023/11/24 08:11:12;;;;;;;4.72;1.05;;;5.00;99.90;;;;;;5055872;28;20049;-67
2023/11/24 08:13:44;;;;;;;5.25;2.50;;;5.00;99.90;;;;;;5056232;28;20589;-67
2023/11/24 08:16:17;;;;;;;3.70;1.85;;;5.00;99.90;;;;;;5062869;28;20048;-67
2023/11/24 08:18:48;;;;;;;9.93;3.63;;;5.00;99.90;;;;;;5058134;28;20037;-67
2023/11/24 08:21:20;;;;;;;10.82;5.07;;;5.00;99.90;;;;;;5049774;28;20053;-67
2023/11/24 08:23:52;;;;;;;9.13;4.18;;;5.00;99.90;;;;;;5050822;28;20033;-67
2023/11/24 08:26:24;;;;;;;14.25;5.65;;;5.00;99.90;;;;;;5056828;28;20049;-67
2023/11/24 08:28:56;;;;;;;10.93;2.92;;;5.00;99.90;;;;;;5057905;28;20043;-67
2023/11/24 08:31:29;;;;;;;6.32;2.85;;;5.00;99.90;;;;;;5054407;28;20045;-67
2023/11/24 08:34:01;;;;;;;6.13;2.47;;;4.90;99.90;;;;;;5030395;28;20049;-67
2023/11/24 08:36:33;;;;;;;3.55;1.88;;;4.90;99.90;;;;;;5059144;28;20048;-67
2023/11/24 08:39:09;;;;;;;4.38;2.45;;;4.80;99.90;;;;;;5059234;28;20037;-67
2023/11/24 08:41:45;;;;;;;5.55;1.20;;;4.80;99.90;;;;;;5061015;28;20611;-67
2023/11/24 08:44:12;;;;;;;9.13;3.13;;;4.80;99.90;;;;;;5059547;28;20118;-67
2023/11/24 08:46:44;;;;;;;4.75;1.83;;;4.70;99.90;;;;;;5054091;28;20103;-67
2023/11/24 08:49:16;;;;;;;5.85;1.75;;;4.80;99.90;;;;;;5054086;28;20060;-67
2023/11/24 08:51:43;;;;;;;4.72;1.38;;;4.70;99.90;;;;;;5033761;28;20035;-67
2023/11/24 08:54:15;;;;;;;5.18;1.90;;;4.60;99.90;;;;;;5052858;28;20041;-67
2023/11/24 08:56:48;;;;;;;4.85;2.05;;;4.60;99.90;;;;;;5052726;28;20029;-67
2023/11/24 08:59:23;;;;;;;6.13;2.55;;;4.70;99.90;;;;;;5055639;28;20385;-67
2023/11/24 09:01:55;;;;;;;4.82;2.85;;;4.70;99.90;;;;;;5060150;28;20547;-67
2023/11/24 09:04:22;;;;;;;5.38;2.40;;;4.60;99.90;;;;;;5056970;28;20095;-68
2023/11/24 09:06:54;;;;;;;7.10;3.30;;;4.60;99.90;;;;;;5057779;28;20041;-67
2023/11/24 09:09:28;;;;;;;5.75;2.28;;;4.60;99.90;;;;;;5059006;28;20041;-67
2023/11/24 09:12:00;;;;;;;6.32;1.65;;;4.50;99.90;;;;;;5056114;28;20084;-67
2023/11/24 09:14:28;;;;;;;6.50;2.30;;;4.60;99.90;;;;;;5058183;28;20041;-67
2023/11/24 09:17:00;;;;;;;6.50;2.00;;;4.50;99.90;;;;;;5061917;28;20029;-67
2023/11/24 09:19:33;;;;;;;3.83;1.42;;;4.50;99.90;;;;;;5052307;28;20287;-67
2023/11/24 09:22:06;;;;;;;4.28;1.20;;;4.60;99.90;;;;;;5048917;28;20377;-67
2023/11/24 09:24:38;;;;;;;2.63;1.23;;;4.60;99.90;;;;;;5057278;28;20079;-67
2023/11/24 09:27:09;;;;;;;5.43;1.60;;;4.50;99.90;;;;;;5051856;28;20494;-67
2023/11/24 09:29:41;;;;;;;4.70;1.77;;;4.50;99.90;;;;;;5051353;28;20073;-71
2023/11/24 09:32:13;;;;;;;3.70;1.42;;;4.50;99.90;;;;;;5039287;28;20041;-67
2023/11/24 09:34:40;;;;;;;2.97;1.33;;;4.50;99.90;;;;;;5054030;28;20047;-67
2023/11/24 09:37:12;;;;;;;2.70;1.20;;;4.50;99.90;;;;;;5059507;28;20044;-67
2023/11/24 09:39:44;;;;;;;3.70;1.45;;;4.50;99.90;;;;;;5056628;28;20417;-67
2023/11/24 09:42:13;;;;;;;3.13;1.92;;;4.50;99.90;;;;;;5059472;28;20031;-66
2023/11/24 09:44:42;;;;;;;7.88;1.60;;;4.50;99.90;;;;;;5051747;28;20072;-66
2023/11/24 09:47:11;;;;;;;2.72;1.20;;;4.60;99.90;;;;;;5052101;28;20048;-67
2023/11/24 09:49:43;;;;;;;6.53;1.75;;;4.60;99.90;;;;;;5049127;28;20055;-67
2023/11/24 09:52:16;;;;;;;3.85;1.60;;;4.60;99.90;;;;;;5059079;28;20059;-66
2023/11/24 09:54:43;;;;;;;4.70;1.70;;;4.60;99.90;;;;;;5045765;28;20055;-67
2023/11/24 09:57:10;;;;;;;3.22;1.45;;;4.60;99.90;;;;;;5048823;28;20032;-66
2023/11/24 09:59:42;;;;;;;4.60;1.73;;;4.70;99.90;;;;;;5053260;28;20045;-66
2023/11/24 10:02:21;;;;;;;5.13;1.57;;;4.70;99.90;;;;;;5053177;28;20037;-66
2023/11/24 10:04:53;;;;;;;3.90;2.13;;;4.70;99.90;;;;;;5051965;28;20038;-66
2023/11/24 10:07:23;;;;;;;6.93;1.40;;;4.70;99.90;;;;;;5059899;28;20127;-66
2023/11/24 10:09:54;;;;;;;4.40;1.30;;;4.80;99.90;;;;;;5058622;28;20040;-66
2023/11/24 10:12:28;;;;;;;4.72;1.52;;;4.80;99.90;;;;;;5041427;28;20072;-66
2023/11/24 10:14:55;;;;;;;4.90;1.52;;;4.70;99.90;;;;;;5061391;28;20040;-66
2023/11/24 10:17:32;;;;;;;2.90;1.60;;;4.80;99.90;;;;;;5053516;28;20417;-67
2023/11/24 10:20:11;;;;;;;4.88;1.98;;;4.80;99.90;;;;;;5052363;28;20045;-65
2023/11/24 10:22:43;;;;;;;4.15;1.83;;;4.80;99.90;;;;;;5049671;28;20045;-66
2023/11/24 10:25:20;;;;;;;4.85;1.30;;;4.80;99.90;;;;;;5058867;28;20120;-67
2023/11/24 10:28:00;;;;;;;2.85;1.40;;;4.90;99.90;;;;;;5043343;28;20401;-67
2023/11/24 10:30:27;;;;;;;4.30;1.40;;;4.90;99.90;;;;;;5055396;28;20450;-66
2023/11/24 10:33:02;;;;;;;4.20;1.75;;;4.90;99.90;;;;;;5058380;28;20115;-66
2023/11/24 10:35:33;;;;;;;3.55;1.35;;;5.00;99.90;;;;;;5058591;28;20531;-67
2023/11/24 10:38:02;;;;;;;7.22;3.67;;;5.00;99.90;;;;;;5051879;28;20039;-67
2023/11/24 10:40:36;;;;;;;4.55;1.30;;;5.00;99.90;;;;;;5055927;28;20041;-67
2023/11/24 10:43:08;;;;;;;2.10;1.23;;;5.00;99.90;;;;;;5052728;28;20032;-66
2023/11/24 10:45:43;;;;;;;2.40;1.48;;;4.90;99.90;;;;;;5057192;28;20056;-67
2023/11/24 10:48:20;;;;;;;3.95;1.77;;;4.90;99.90;;;;;;5059588;28;20128;-67
2023/11/24 10:50:59;;;;;;;5.03;1.70;;;4.90;99.90;;;;;;5063245;28;20140;-67
2023/11/24 10:53:35;;;;;;;2.17;1.52;;;5.00;99.90;;;;;;5058728;28;20409;-67
2023/11/24 10:56:08;;;;;;;2.67;1.67;;;5.00;99.90;;;;;;5057692;28;20044;-67
2023/11/24 10:58:42;;;;;;;4.23;2.00;;;5.00;99.90;;;;;;5055165;28;20065;-65
2023/11/24 11:01:16;;;;;;;4.25;2.20;;;5.00;99.90;;;;;;5052447;28;20287;-67
2023/11/24 11:03:57;;;;;;;6.38;2.00;;;5.00;99.90;;;;;;5070153;28;20060;-66
2023/11/24 11:06:48;;;;;;;7.32;2.38;;;5.00;99.90;;;;;;5058147;28;20052;-66
2023/11/24 11:09:29;;;;;;;5.22;2.20;;;5.10;99.90;;;;;;5063988;28;20051;-66
2023/11/24 11:12:29;;;;;;;4.72;2.10;;;5.10;99.90;;;;;;5057924;28;20068;-66
2023/11/24 11:15:03;;;;;;;7.20;2.13;;;5.10;99.90;;;;;;5063489;28;20051;-66
2023/11/24 11:17:37;;;;;;;5.25;1.80;;;5.20;99.90;;;;;;5056173;28;20569;-66
2023/11/24 11:20:12;;;;;;;7.35;2.70;;;5.20;99.90;;;;;;5056324;28;20043;-67
2023/11/24 11:22:47;;;;;;;8.85;2.10;;;5.30;99.90;;;;;;5056020;28;20123;-66
2023/11/24 11:25:20;;;;;;;5.68;2.90;;;5.40;99.90;;;;;;5053394;28;20443;-66
2023/11/24 11:27:55;;;;;;;4.30;2.35;;;5.50;99.90;;;;;;5047902;28;20416;-66
2023/11/24 11:30:27;;;;;;;9.07;3.33;;;5.50;99.90;;;;;;5056039;28;20045;-67
2023/11/24 11:33:24;;;;;;;5.63;2.00;;;5.60;99.90;;;;;;5055879;28;20248;-67
2023/11/24 11:36:09;;;;;;;7.38;2.10;;;5.70;99.90;;;;;;5054872;28;20057;-67
2023/11/24 11:38:45;;;;;;;6.55;2.35;;;5.70;99.90;;;;;;5055414;28;20123;-66
2023/11/24 11:41:41;;;;;;;5.32;2.08;;;5.80;99.90;;;;;;5058178;28;20040;-66
2023/11/24 11:44:23;;;;;;;5.20;1.90;;;5.80;99.90;;;;;;5059776;28;20039;-67
2023/11/24 11:49:56;;;;;;;11.40;3.90;;;5.90;99.90;;;;;;5045130;28;20052;-67
2023/11/24 11:52:26;;;;;;;4.68;1.92;;;5.90;99.90;;;;;;5054245;28;20159;-67
2023/11/24 11:54:55;;;;;;;5.05;1.40;;;5.90;99.90;;;;;;5052762;28;20050;-66
2023/11/24 11:57:22;;;;;;;7.15;1.50;;;5.90;99.90;;;;;;5052154;28;20064;-67
2023/11/24 11:59:54;;;;;;;5.03;1.40;;;5.90;99.90;;;;;;5047312;28;20036;-67
2023/11/24 12:02:22;;;;;;;8.43;2.78;;;5.90;99.90;;;;;;5070653;28;20041;-67
2023/11/24 12:04:55;;;;;;;4.13;2.17;;;5.90;99.90;;;;;;5042773;28;20037;-67
2023/11/24 12:07:27;;;;;;;5.07;1.50;;;5.80;99.90;;;;;;5061375;28;20049;-67
2023/11/24 12:09:54;;;;;;;2.55;1.15;;;5.80;99.90;;;;;;5060076;28;20080;-67
2023/11/24 12:12:25;;;;;;;5.05;1.60;;;5.70;99.90;;;;;;5054417;28;20131;-67
2023/11/24 12:15:00;;;;;;;3.88;2.00;;;5.70;99.90;;;;;;5058237;28;20041;-67
2023/11/24 12:17:32;;;;;;;9.27;3.22;;;5.70;99.90;;;;;;5058109;28;20045;-67
2023/11/24 12:20:10;;;;;;;6.50;1.90;;;5.70;99.90;;;;;;5058463;28;20036;-67
2023/11/24 12:22:43;;;;;;;6.05;1.45;;;5.70;99.90;;;;;;5058402;28;20048;-67
2023/11/24 12:25:15;;;;;;;;;;;5.80;99.90;;;;;;5042502;28;20041;-67
2023/11/24 12:27:47;;;;;;;3.47;1.40;;;5.80;99.90;;;;;;5050125;28;19925;-67
2023/11/24 12:30:14;;;;;;;4.78;1.48;;;5.90;99.90;;;;;;5056054;28;20157;-67
2023/11/24 12:32:46;;;;;;;6.25;1.70;;;5.90;99.90;;;;;;5057932;28;20078;-67
2023/11/24 12:35:18;;;;;;;4.88;1.63;;;5.90;99.90;;;;;;5050948;28;20547;-67
2023/11/24 12:37:48;;;;;;;7.68;3.30;;;5.90;99.90;;;;;;5054160;28;20503;-67
2023/11/24 12:40:23;;;;;;;5.65;2.38;;;5.90;99.90;;;;;;5055222;28;20048;-66
2023/11/24 12:43:01;;;;;;;5.50;1.85;;;6.00;99.90;;;;;;5059982;28;20041;-67
2023/11/24 12:45:35;;;;;;;6.20;2.97;;;6.00;99.90;;;;;;5061038;28;20088;-67
2023/11/24 12:48:28;;;;;;;5.63;1.98;;;6.00;99.90;;;;;;5062537;28;20052;-66
2023/11/24 12:51:00;;;;;;;4.45;2.53;;;6.00;99.90;;;;;;5052697;28;20495;-66
2023/11/24 12:53:33;;;;;;;6.75;1.85;;;6.10;99.90;;;;;;5059468;28;20037;-67
2023/11/24 12:56:05;;;;;;;5.03;2.03;;;6.20;99.90;;;;;;5053655;28;20041;-66
2023/11/24 12:58:32;;;;;;;4.70;1.65;;;6.20;99.90;;;;;;5055872;28;20036;-66
2023/11/24 13:01:08;;;;;;;2.80;1.65;;;6.30;99.90;;;;;;5045641;28;20067;-66
2023/11/24 13:03:41;;;;;;;4.50;1.67;;;6.40;99.90;;;;;;5033532;28;20048;-67
2023/11/24 13:06:13;;;;;;;6.85;1.83;;;6.40;99.90;;;;;;5050926;28;20045;-67
2023/11/24 13:08:46;;;;;;;3.40;1.80;;;6.50;99.90;;;;;;5050319;28;20052;-66
2023/11/24 13:11:18;;;;;;;3.83;1.25;;;6.50;99.90;;;;;;5052592;28;20041;-66
2023/11/24 13:13:50;;;;;;;3.95;1.45;;;6.50;99.90;;;;;;5032391;28;20099;-67
2023/11/24 13:16:22;;;;;;;5.57;1.23;;;6.50;99.90;;;;;;5054880;28;20041;-66
2023/11/24 13:18:57;;;;;;;3.50;1.48;;;6.40;99.90;;;;;;5055196;28;20040;-66
2023/11/24 13:21:28;;;;;;;3.03;1.27;;;6.40;99.90;;;;;;5059546;28;20056;-67
2023/11/24 13:23:55;;;;;;;2.60;1.30;;;6.40;99.90;;;;;;5053348;28;20047;-67
2023/11/24 13:26:27;;;;;;;4.25;1.25;;;6.50;99.90;;;;;;5049426;28;20072;-66